createdAt,value
2018-06-21T00:00:24.779Z,95820.5
2018-06-21T00:05:22.232Z,95818.5
2018-06-21T00:10:19.542Z,95625.1
2018-06-21T00:15:16.761Z,95749.1
2018-06-21T00:20:14.024Z,95821.8
2018-06-21T00:25:11.249Z,95698.3
2018-06-21T00:30:08.450Z,95827.9
2018-06-21T00:35:05.231Z,95833.3
2018-06-21T00:40:02.953Z,95824.2
2018-06-21T00:45:00.460Z,95816.9
2018-06-21T00:49:56.920Z,95822.1
2018-06-21T00:54:54.569Z,95817.7
2018-06-21T00:59:51.763Z,95816.1
2018-06-21T01:04:48.959Z,95819
2018-06-21T01:09:46.275Z,95660.1
2018-06-21T01:14:43.273Z,95734.1
2018-06-21T01:19:40.513Z,95831
2018-06-21T01:24:37.884Z,95800.4
2018-06-21T01:29:35.026Z,95828.4
2018-06-21T01:34:32.326Z,95825.6
2018-06-21T01:39:29.504Z,95743.8
2018-06-21T01:44:26.668Z,95822.5
2018-06-21T01:49:23.894Z,95691.4
2018-06-21T01:54:21.197Z,95727.9
2018-06-21T01:59:18.649Z,95726.2
2018-06-21T02:04:16.131Z,95800.5
2018-06-21T02:09:13.577Z,95722.7
2018-06-21T02:14:10.898Z,95723
2018-06-21T02:19:08.325Z,95734.1
2018-06-21T02:24:06.087Z,95728.9
2018-06-21T02:29:03.241Z,95807.5
2018-06-21T02:34:00.656Z,95699.5
2018-06-21T02:38:58.052Z,95721.8
2018-06-21T02:43:55.521Z,95796.9
2018-06-21T02:48:52.785Z,95713.7
2018-06-21T02:53:50.792Z,95799.9
2018-06-21T02:58:48.108Z,95727
2018-06-21T03:03:45.644Z,95728.6
2018-06-21T03:08:43.012Z,95718.2
2018-06-21T03:13:40.545Z,95715.3
2018-06-21T03:18:37.930Z,95807.5
2018-06-21T03:23:34.982Z,95717.6
2018-06-21T03:28:32.229Z,95696.8
2018-06-21T03:33:29.512Z,95722.4
2018-06-21T03:38:26.798Z,95745.2
2018-06-21T03:43:24.028Z,95726.4
2018-06-21T03:48:21.390Z,95724.3
2018-06-21T03:53:18.386Z,95731.4
2018-06-21T03:58:15.742Z,95719.3
2018-06-21T04:03:13.027Z,95709
2018-06-21T04:08:10.224Z,95713.4
2018-06-21T04:13:07.410Z,95703.5
2018-06-21T04:18:04.508Z,95792
2018-06-21T04:23:01.943Z,95718
2018-06-21T04:27:59.259Z,95800.6
2018-06-21T04:32:56.383Z,95788.1
2018-06-21T04:37:53.670Z,95792.4
2018-06-21T04:42:50.760Z,95706.5
2018-06-21T04:47:48.104Z,95710.8
2018-06-21T04:52:45.741Z,95715.3
2018-06-21T04:57:43.167Z,95707.5
2018-06-21T05:02:40.413Z,95765.2
2018-06-21T05:07:37.488Z,95792.8
2018-06-21T05:12:34.743Z,95707.9
2018-06-21T05:17:31.962Z,95791.6
2018-06-21T05:22:29.234Z,95792.4
2018-06-21T05:27:26.345Z,95781.7
2018-06-21T05:32:23.518Z,95701.5
2018-06-21T05:37:21.035Z,95701.5
2018-06-21T05:42:18.513Z,95779.1
2018-06-21T05:47:15.870Z,95691.5
2018-06-21T05:52:13.086Z,95680.2
2018-06-21T05:57:10.093Z,95775.3
2018-06-21T06:02:07.389Z,95690.5
2018-06-21T06:07:04.485Z,95772.5
2018-06-21T06:12:01.315Z,95687.3
2018-06-21T06:16:58.898Z,95684.5
2018-06-21T06:21:55.577Z,95738.8
2018-06-21T06:26:52.832Z,95786.6
2018-06-21T06:31:49.918Z,95752.4
2018-06-21T06:36:47.167Z,95630.7
2018-06-21T06:41:44.372Z,95747.9
2018-06-21T06:46:41.627Z,95743.3
2018-06-21T06:51:40.120Z,95739.9
2018-06-21T06:56:36.957Z,95664.2
2018-06-21T07:01:33.678Z,95653.5
2018-06-21T07:06:30.779Z,95663.1
2018-06-21T07:11:28.190Z,95649
2018-06-21T07:16:25.731Z,95645.8
2018-06-21T07:21:23.106Z,95652.7
2018-06-21T07:26:20.444Z,95722.1
2018-06-21T07:31:17.691Z,95717.1
2018-06-21T07:36:15.198Z,95638.8
2018-06-21T07:41:12.465Z,95707.5
2018-06-21T07:46:09.798Z,95707.5
2018-06-21T07:51:07.229Z,95699.8
2018-06-21T07:56:04.388Z,95702.7
2018-06-21T08:01:01.780Z,95615.6
2018-06-21T08:05:59.085Z,95618
2018-06-21T08:10:56.272Z,95698.8
2018-06-21T08:15:53.565Z,95691.1
2018-06-21T08:20:50.844Z,95765.8
2018-06-21T08:25:48.026Z,95687
2018-06-21T08:30:45.458Z,95747.3
2018-06-21T08:35:42.964Z,95667.5
2018-06-21T08:40:40.154Z,95669.6
2018-06-21T08:45:38.519Z,95663.3
2018-06-21T08:50:34.961Z,95728.1
2018-06-21T08:55:32.637Z,95654.7
2018-06-21T09:00:29.563Z,95652.1
2018-06-21T09:05:26.668Z,95648.3
2018-06-21T09:10:23.929Z,95644.6
2018-06-21T09:15:21.024Z,95633.8
2018-06-21T09:20:18.282Z,95551.2
2018-06-21T09:25:15.700Z,95616
2018-06-21T09:30:13.134Z,95580.9
2018-06-21T09:35:10.427Z,95598.7
2018-06-21T09:40:07.857Z,95570.7
2018-06-21T09:45:05.681Z,95585.5
2018-06-21T09:50:03.313Z,95584.9
2018-06-21T09:55:00.961Z,95583.6
2018-06-21T09:59:58.401Z,95509.6
2018-06-21T10:04:55.717Z,95572
2018-06-21T10:09:52.991Z,95568.9
2018-06-21T10:14:50.541Z,95528.9
2018-06-21T10:19:47.616Z,95565.9
2018-06-21T10:24:44.953Z,95551.8
2018-06-21T10:29:41.917Z,95560.7
2018-06-21T10:34:39.219Z,95478.5
2018-06-21T10:39:36.616Z,95497.8
2018-06-21T10:44:33.864Z,95486.5
2018-06-21T10:49:31.690Z,95540
2018-06-21T10:54:28.919Z,95453
2018-06-21T10:59:26.201Z,95456.2
2018-06-21T11:04:23.861Z,95536
2018-06-21T11:09:21.378Z,95544.5
2018-06-21T11:14:18.764Z,95550.4
2018-06-21T11:19:16.121Z,95556.9
2018-06-21T11:24:13.469Z,95561.4
2018-06-21T11:29:11.040Z,95566.9
2018-06-21T11:34:08.271Z,95587.5
2018-06-21T11:39:06.127Z,95544.5
2018-06-21T11:44:03.320Z,95459
2018-06-21T11:49:00.518Z,95471.3
2018-06-21T11:53:57.921Z,95425.3
2018-06-21T11:58:54.924Z,95565.2
2018-06-21T12:03:52.457Z,95580.6
2018-06-21T12:08:50.045Z,95516.5
2018-06-21T12:13:46.865Z,95508
2018-06-21T12:18:44.265Z,95560.6
2018-06-21T12:23:41.390Z,95535.7
2018-06-21T12:28:38.826Z,95500.1
2018-06-21T12:33:36.054Z,95504.1
2018-06-21T12:38:33.249Z,95551.1
2018-06-21T12:43:30.558Z,95497.4
2018-06-21T12:48:27.794Z,95505.9
2018-06-21T12:53:25.067Z,95490.5
2018-06-21T12:58:22.628Z,95490.9
2018-06-21T13:03:20.250Z,95483.9
2018-06-21T13:08:17.415Z,95464.9
2018-06-21T13:13:14.871Z,95464.7
2018-06-21T13:18:12.389Z,95389.2
2018-06-21T13:23:10.304Z,95374.2
2018-06-21T13:28:06.922Z,95366.1
2018-06-21T13:33:04.223Z,95359.3
2018-06-21T13:38:01.673Z,95431.8
2018-06-21T13:42:59.277Z,95447.8
2018-06-21T13:47:56.411Z,95370.4
2018-06-21T13:52:53.678Z,95377.5
2018-06-21T13:57:51.083Z,95448.8
2018-06-21T14:02:48.385Z,95345.4
2018-06-21T14:07:46.449Z,95422
2018-06-21T14:12:43.597Z,95422.4
2018-06-21T14:17:41.193Z,95416.6
2018-06-21T14:22:38.669Z,95331
2018-06-21T14:27:35.740Z,95335.3
2018-06-21T14:32:33.079Z,95413.8
2018-06-21T14:37:31.465Z,95411.5
2018-06-21T14:42:28.743Z,95419.9
2018-06-21T14:47:26.309Z,95358.8
2018-06-21T14:52:23.679Z,95430.8
2018-06-21T14:57:20.990Z,95364.1
2018-06-21T15:02:18.178Z,95362.5
2018-06-21T15:07:15.489Z,95364.3
2018-06-21T15:12:12.683Z,95429.4
2018-06-21T15:17:09.984Z,95423.3
2018-06-21T15:22:07.313Z,95409.7
2018-06-21T15:27:05.015Z,95399
2018-06-21T15:32:01.999Z,95316.3
2018-06-21T15:36:59.354Z,95378.2
2018-06-21T15:41:56.687Z,95365
2018-06-21T15:46:53.728Z,95270.7
2018-06-21T15:51:51.076Z,95340.5
2018-06-21T15:56:48.031Z,95345.8
2018-06-21T16:01:45.375Z,95285
2018-06-21T16:06:42.975Z,95365.2
2018-06-21T16:11:40.367Z,95303.1
2018-06-21T16:16:37.635Z,95304.8
2018-06-21T16:21:34.853Z,95315.9
2018-06-21T16:26:32.310Z,95408.2
2018-06-21T16:31:29.512Z,95426.7
2018-06-21T16:36:26.569Z,95385.4
2018-06-21T16:41:24.157Z,95432.5
2018-06-21T16:46:21.667Z,95439.3
2018-06-21T16:51:18.924Z,95434.4
2018-06-21T16:56:16.274Z,95431
2018-06-21T17:01:13.726Z,95437.1
2018-06-21T17:06:10.667Z,95355.1
2018-06-21T17:11:07.847Z,95485.6
2018-06-21T17:16:05.132Z,95426.6
2018-06-21T17:21:02.541Z,95470.4
2018-06-21T17:25:59.635Z,95420.6
2018-06-21T17:30:56.419Z,95479.4
2018-06-21T17:35:53.635Z,95422.6
2018-06-21T17:40:50.891Z,95416.9
2018-06-21T17:45:48.024Z,95444.9
2018-06-21T17:50:45.294Z,95323.9
2018-06-21T17:55:42.617Z,95338.5
2018-06-21T18:00:39.397Z,95371.8
2018-06-21T18:05:36.595Z,95313.4
2018-06-21T18:10:34.050Z,95316.1
2018-06-21T18:15:31.111Z,95320.6
2018-06-21T18:20:28.895Z,95317.8
2018-06-21T18:25:26.479Z,95446.2
2018-06-21T18:30:23.678Z,95388
2018-06-21T18:35:21.947Z,95388.4
2018-06-21T18:40:18.896Z,95317
2018-06-21T18:45:16.233Z,95405.8
2018-06-21T18:50:13.531Z,95414.4
2018-06-21T18:55:10.497Z,95421.2
2018-06-21T19:00:07.804Z,95423.6
2018-06-21T19:05:05.058Z,95347.7
2018-06-21T19:10:02.370Z,95429.2
2018-06-21T19:14:59.773Z,95358.4
2018-06-21T19:19:57.138Z,95445.9
2018-06-21T19:24:54.203Z,95443.6
2018-06-21T19:29:51.519Z,95445.2
2018-06-21T19:34:48.696Z,95445.8
2018-06-21T19:39:46.031Z,95447.7
2018-06-21T19:44:43.064Z,95451.6
2018-06-21T19:49:40.154Z,95364.9
2018-06-21T19:54:37.581Z,95290.9
2018-06-21T19:59:34.822Z,95374.6
2018-06-21T20:04:31.882Z,95249.6
2018-06-21T20:09:29.091Z,95369
2018-06-21T20:14:26.224Z,95368.3
2018-06-21T20:19:23.363Z,95437.7
2018-06-21T20:24:20.797Z,95349.7
2018-06-21T20:29:18.970Z,95343.6
2018-06-21T20:34:15.969Z,95424.5
2018-06-21T20:39:12.621Z,95427.8
2018-06-21T20:44:09.976Z,95421.9
2018-06-21T20:49:07.719Z,95338.4
2018-06-21T20:54:04.730Z,95411
2018-06-21T20:59:01.921Z,95280.1
2018-06-21T21:03:59.058Z,95418.5
2018-06-21T21:08:56.317Z,95413.7
2018-06-21T21:13:53.594Z,95326.6
2018-06-21T21:18:51.084Z,95377.3
2018-06-21T21:23:48.674Z,95317.6
2018-06-21T21:28:45.819Z,95317.8
2018-06-21T21:33:42.612Z,95397.1
2018-06-21T21:38:40.491Z,95396.9
2018-06-21T21:43:37.477Z,95291
2018-06-21T21:48:34.812Z,95310.2
2018-06-21T21:53:32.328Z,95275.6
2018-06-21T21:58:29.658Z,95320.6
2018-06-21T22:03:26.922Z,95393.9
2018-06-21T22:08:23.902Z,95387.2
2018-06-21T22:13:21.131Z,95303.8
2018-06-21T22:18:17.844Z,95377.6
2018-06-21T22:23:14.947Z,95375.9
2018-06-21T22:28:12.174Z,95369.2
2018-06-21T22:33:09.067Z,95290.5
2018-06-21T22:38:06.276Z,95275.6
2018-06-21T22:43:03.215Z,95250.1
2018-06-21T22:48:00.398Z,95354.1
2018-06-21T22:52:57.523Z,95285.5
2018-06-21T22:57:54.366Z,95357.7
2018-06-21T23:02:51.553Z,95273.9
2018-06-21T23:07:48.557Z,95366.6
2018-06-21T23:12:45.736Z,95277.5
2018-06-21T23:17:42.395Z,95359.1
2018-06-21T23:22:39.671Z,95357.2
2018-06-21T23:27:36.836Z,95282.3
2018-06-21T23:32:33.535Z,95275.2
2018-06-21T23:37:31.057Z,95273.9
2018-06-21T23:42:28.077Z,95271.2
2018-06-21T23:47:25.236Z,95267
2018-06-21T23:52:22.784Z,95324.8
2018-06-21T23:57:19.865Z,95339.6
